Time;durP1;ratioP1;P1;durP2;ratioP2;P2;SDS_P1;SDS_P2;PMS_P1;PMS_P2;Temp;Humidity;BMP_temperature;BMP_pressure;BME280_temperature;BME280_humidity;BME280_pressure;Samples;Min_cycle;Max_cycle;Signal;HPM_P1;HPM_P2
2024/02/27 00:02:08;;;;;;;14.07;6.28;;;;;;;4.82;100.00;101220.97;6325727;28;20066;-76
2024/02/27 00:05:10;;;;;;;20.95;7.60;;;;;;;4.78;100.00;101230.56;6325734;28;20456;-76
2024/02/27 00:08:12;;;;;;;17.60;7.53;;;;;;;4.82;100.00;101229.63;6325291;28;20059;-76
2024/02/27 00:11:14;;;;;;;20.58;8.48;;;;;;;4.77;100.00;101239.28;6325727;28;20040;-76
2024/02/27 00:14:16;;;;;;;18.45;8.23;;;;;;;4.76;100.00;101239.28;6325421;28;20048;-76
2024/02/27 00:17:17;;;;;;;18.73;7.85;;;;;;;4.74;100.00;101244.53;6325719;28;20051;-76
2024/02/27 00:20:18;;;;;;;16.58;7.60;;;;;;;4.72;100.00;101243.69;6325074;28;20047;-76
2024/02/27 00:23:21;;;;;;;21.92;8.20;;;;;;;4.76;100.00;101244.50;6325394;28;20044;-76
2024/02/27 00:26:22;;;;;;;20.88;8.85;;;;;;;4.74;100.00;101254.97;6325271;28;20055;-76
2024/02/27 00:29:25;;;;;;;21.35;8.57;;;;;;;4.78;100.00;101259.22;6324535;28;20044;-76
2024/02/27 00:32:26;;;;;;;19.13;8.63;;;;;;;4.74;100.00;101262.78;6325680;28;20439;-75
2024/02/27 00:35:27;;;;;;;25.73;9.02;;;;;;;4.65;100.00;101262.97;6310558;28;20068;-76
2024/02/27 00:38:30;;;;;;;18.70;8.25;;;;;;;4.62;100.00;101267.38;6297813;28;20352;-76
2024/02/27 00:41:31;;;;;;;19.17;8.90;;;;;;;4.60;100.00;101264.81;6305264;28;20047;-76
2024/02/27 00:44:33;;;;;;;21.95;8.98;;;;;;;4.70;100.00;101268.06;6314547;28;20040;-76
2024/02/27 00:47:34;;;;;;;23.15;10.52;;;;;;;4.65;100.00;101275.97;6299842;28;20048;-76
2024/02/27 00:50:36;;;;;;;30.63;9.80;;;;;;;4.58;100.00;101274.38;6323649;28;20067;-76
2024/02/27 00:53:39;;;;;;;29.92;11.18;;;;;;;4.57;100.00;101272.66;6325197;28;20044;-76
2024/02/27 00:56:41;;;;;;;27.42;11.05;;;;;;;4.47;100.00;101269.41;6325073;28;20048;-76
2024/02/27 00:59:43;;;;;;;27.60;11.00;;;;;;;4.37;100.00;101265.25;6324262;28;20043;-76
2024/02/27 01:02:44;;;;;;;22.27;9.80;;;;;;;4.29;100.00;101269.75;6324722;28;20051;-76
2024/02/27 01:05:45;;;;;;;29.92;10.60;;;;;;;4.30;100.00;101274.06;6324828;28;20040;-76
2024/02/27 01:08:48;;;;;;;25.00;10.82;;;;;;;4.24;100.00;101276.78;6323968;28;20044;-76
2024/02/27 01:11:50;;;;;;;26.05;10.48;;;;;;;4.17;100.00;101281.22;6325070;28;20044;-76
2024/02/27 01:14:51;;;;;;;26.90;10.57;;;;;;;4.08;100.00;101277.06;6324320;28;20048;-76
2024/02/27 01:17:52;;;;;;;28.88;10.73;;;;;;;4.08;100.00;101276.19;6324807;28;20139;-76
2024/02/27 01:20:54;;;;;;;27.02;10.63;;;;;;;3.96;100.00;101271.22;6323937;28;20360;-76
2024/02/27 01:23:57;;;;;;;27.55;11.30;;;;;;;3.91;100.00;101265.25;6324384;28;20052;-76
2024/02/27 01:26:58;;;;;;;26.83;10.82;;;;;;;3.88;100.00;101270.50;6324519;28;20056;-76
2024/02/27 01:29:59;;;;;;;27.15;10.52;;;;;;;3.89;100.00;101275.66;6323745;28;20610;-76
2024/02/27 01:33:01;;;;;;;31.75;11.88;;;;;;;3.73;100.00;101272.47;6324646;28;20055;-76
2024/02/27 01:36:02;;;;;;;28.52;11.70;;;;;;;3.56;100.00;101280.53;6323997;28;20344;-76
2024/02/27 01:39:06;;;;;;;34.35;10.32;;;;;;;3.51;100.00;101292.75;6323837;28;20464;-76
2024/02/27 01:42:07;;;;;;;26.42;9.88;;;;;;;3.52;100.00;101283.22;6324338;28;20052;-76
2024/02/27 01:45:18;;;;;;;27.95;11.10;;;;;;;3.43;100.00;101273.81;6324028;28;20356;-76
2024/02/27 01:48:20;;;;;;;26.05;10.90;;;;;;;3.51;100.00;101271.97;6323823;28;20074;-76
2024/02/27 01:51:23;;;;;;;24.40;10.48;;;;;;;3.48;100.00;101284.16;6284448;22;20044;-76
2024/02/27 01:54:26;;;;;;;23.52;10.35;;;;;;;3.45;100.00;101285.06;6275620;28;20452;-76
2024/02/27 01:57:28;;;;;;;29.60;10.77;;;;;;;3.52;100.00;101285.81;6278828;28;20045;-76
2024/02/27 02:00:30;;;;;;;25.00;9.95;;;;;;;3.53;100.00;101282.31;6284442;28;20051;-76
2024/02/27 02:03:36;;;;;;;17.55;8.63;;;;;;;3.50;100.00;101282.41;6303997;28;20137;-76
2024/02/27 02:06:39;;;;;;;26.85;9.32;;;;;;;3.47;100.00;101279.84;6303507;28;20045;-76
2024/02/27 02:09:41;;;;;;;22.02;8.88;;;;;;;3.50;100.00;101277.19;6302873;28;20475;-76
2024/02/27 02:12:43;;;;;;;23.33;9.45;;;;;;;3.53;100.00;101284.94;6303263;28;20047;-76
2024/02/27 02:15:44;;;;;;;23.23;8.75;;;;;;;3.57;100.00;101289.19;6303312;28;20049;-76
2024/02/27 02:18:48;;;;;;;26.50;9.13;;;;;;;3.66;100.00;101283.84;6280344;28;20063;-76
2024/02/27 02:21:51;;;;;;;23.73;9.55;;;;;;;3.70;100.00;101295.06;6271565;28;20330;-77
2024/02/27 02:24:52;;;;;;;24.40;9.70;;;;;;;3.72;100.00;101301.06;6274213;28;20053;-76
2024/02/27 02:27:53;;;;;;;21.88;9.73;;;;;;;3.71;100.00;101304.56;6282385;28;20317;-76
2024/02/27 02:30:55;;;;;;;25.40;9.85;;;;;;;3.75;100.00;101309.69;6295864;28;20048;-76
2024/02/27 02:33:56;;;;;;;24.00;9.38;;;;;;;3.81;100.00;101311.31;6302175;28;20045;-76
2024/02/27 02:36:59;;;;;;;23.40;10.00;;;;;;;3.74;100.00;101323.59;6269876;28;20053;-76
2024/02/27 02:40:01;;;;;;;24.13;10.32;;;;;;;3.74;100.00;101322.72;6288003;28;20048;-76
2024/02/27 02:43:02;;;;;;;22.48;9.93;;;;;;;3.79;100.00;101316.56;6297863;28;20061;-76
2024/02/27 02:46:04;;;;;;;22.13;8.98;;;;;;;3.75;100.00;101320.09;6280286;28;20060;-76
2024/02/27 02:49:05;;;;;;;20.88;8.45;;;;;;;3.64;100.00;101329.81;6302117;28;20056;-75
2024/02/27 02:52:09;;;;;;;21.65;9.18;;;;;;;3.79;100.00;101326.09;6302362;28;20041;-76
2024/02/27 02:55:11;;;;;;;21.20;9.23;;;;;;;3.89;100.00;101334.59;6302045;28;20041;-78
2024/02/27 02:58:12;;;;;;;26.40;10.10;;;;;;;3.90;100.00;101337.19;6301832;28;20040;-76
2024/02/27 03:01:13;;;;;;;19.08;8.93;;;;;;;3.91;100.00;101344.13;6302139;28;20047;-76
2024/02/27 03:04:15;;;;;;;20.70;8.98;;;;;;;3.93;100.00;101344.94;6301620;28;20045;-76
2024/02/27 03:07:18;;;;;;;26.50;10.55;;;;;;;3.87;100.00;101339.00;6302269;28;20630;-76
2024/02/27 03:10:19;;;;;;;18.75;8.70;;;;;;;3.93;100.00;101347.53;6301392;28;20425;-76
2024/02/27 03:13:20;;;;;;;24.20;9.27;;;;;;;3.98;100.00;101356.13;6301754;28;20048;-76
2024/02/27 03:16:22;;;;;;;22.88;9.35;;;;;;;3.87;100.00;101352.84;6293566;28;20052;-76
2024/02/27 03:19:25;;;;;;;21.83;8.30;;;;;;;3.93;100.00;101363.13;6301321;28;20052;-76
2024/02/27 03:22:28;;;;;;;19.95;7.80;;;;;;;3.91;100.00;101372.72;6302000;28;20048;-76
2024/02/27 03:25:29;;;;;;;22.98;9.60;;;;;;;3.89;100.00;101371.00;6301377;28;20040;-76
2024/02/27 03:28:30;;;;;;;22.70;8.43;;;;;;;3.82;100.00;101375.47;6301089;28;20047;-76
2024/02/27 03:31:32;;;;;;;21.67;9.05;;;;;;;3.89;100.00;101379.66;6301404;28;20045;-76
2024/02/27 03:34:34;;;;;;;23.38;8.50;;;;;;;3.89;100.00;101371.00;6299186;28;20052;-76
2024/02/27 03:37:37;;;;;;;21.75;8.65;;;;;;;3.94;100.00;101377.00;6291793;28;20049;-76
2024/02/27 03:40:38;;;;;;;25.70;10.15;;;;;;;3.90;100.00;101383.97;6286278;28;20046;-76
2024/02/27 03:43:41;;;;;;;21.63;8.52;;;;;;;3.87;100.00;101394.44;6299788;28;20429;-76
2024/02/27 03:46:43;;;;;;;21.00;8.27;;;;;;;3.95;100.00;101387.38;6300982;28;20041;-76
2024/02/27 03:49:44;;;;;;;23.92;9.93;;;;;;;3.83;100.00;101387.56;6297184;28;20052;-76
2024/02/27 03:52:47;;;;;;;24.05;9.85;;;;;;;3.94;100.00;101388.25;6284932;28;20040;-76
2024/02/27 03:55:48;;;;;;;21.98;8.35;;;;;;;3.92;100.00;101382.22;6300964;28;20059;-76
2024/02/27 03:58:50;;;;;;;22.60;8.40;;;;;;;3.99;100.00;101381.22;6300499;28;20067;-76
2024/02/27 04:01:52;;;;;;;25.60;9.35;;;;;;;3.90;100.00;101381.38;6300785;28;20041;-76
2024/02/27 04:04:53;;;;;;;27.95;9.15;;;;;;;3.91;100.00;101388.31;6300677;28;20448;-76
2024/02/27 04:07:56;;;;;;;23.02;8.48;;;;;;;3.99;100.00;101391.63;6300748;28;20044;-76
2024/02/27 04:10:57;;;;;;;20.45;7.28;;;;;;;4.08;100.00;101385.44;6300761;28;20048;-76
2024/02/27 04:14:00;;;;;;;26.10;8.88;;;;;;;4.06;100.00;101395.88;6300509;28;20140;-76
2024/02/27 04:17:02;;;;;;;23.58;9.20;;;;;;;4.04;100.00;101395.03;6299939;28;20055;-76
2024/02/27 04:20:05;;;;;;;23.75;8.93;;;;;;;4.08;100.00;101393.22;6299995;28;20045;-76
2024/02/27 04:23:08;;;;;;;26.63;9.43;;;;;;;4.08;100.00;101394.09;6300674;28;20118;-77
2024/02/27 04:26:09;;;;;;;32.15;9.35;;;;;;;4.12;100.00;101401.84;6300065;28;20368;-76
2024/02/27 04:29:10;;;;;;;27.65;9.43;;;;;;;4.16;100.00;101401.78;6299788;28;20429;-76
2024/02/27 04:32:13;;;;;;;27.45;10.18;;;;;;;4.04;100.00;101399.34;6300445;28;20448;-76
2024/02/27 04:35:15;;;;;;;22.95;8.48;;;;;;;4.06;100.00;101400.22;6295333;28;20045;-76
2024/02/27 04:38:18;;;;;;;23.48;9.48;;;;;;;4.13;100.00;101403.56;6273201;28;20353;-76
2024/02/27 04:41:19;;;;;;;21.90;8.07;;;;;;;4.13;100.00;101400.97;6280603;28;20045;-76
2024/02/27 04:44:21;;;;;;;20.45;8.40;;;;;;;4.18;100.00;101406.94;6288277;28;20040;-77
2024/02/27 04:47:22;;;;;;;26.63;8.68;;;;;;;4.10;100.00;101407.09;6290692;28;20037;-76
2024/02/27 04:50:23;;;;;;;20.27;8.20;;;;;;;4.16;100.00;101404.38;6279512;28;20040;-76
2024/02/27 04:53:26;;;;;;;20.98;8.30;;;;;;;4.22;100.00;101406.00;6300047;28;20075;-76
2024/02/27 04:56:27;;;;;;;22.95;7.95;;;;;;;4.13;100.00;101408.75;6299698;28;20044;-76
2024/02/27 04:59:29;;;;;;;22.60;8.30;;;;;;;4.14;100.00;101397.50;6299355;28;20048;-76
2024/02/27 05:02:30;;;;;;;24.70;8.20;;;;;;;4.19;100.00;101393.06;6299883;28;20040;-75
2024/02/27 05:05:31;;;;;;;19.23;6.45;;;;;;;4.24;100.00;101405.13;6299715;28;20056;-76
2024/02/27 05:08:34;;;;;;;24.33;8.38;;;;;;;4.15;100.00;101407.88;6299116;28;20463;-76
2024/02/27 05:11:35;;;;;;;22.52;7.72;;;;;;;4.27;100.00;101404.19;6299476;28;20345;-77
2024/02/27 05:14:37;;;;;;;19.20;8.25;;;;;;;4.25;100.00;101404.22;6299411;28;20040;-76
2024/02/27 05:17:38;;;;;;;22.15;8.40;;;;;;;4.32;100.00;101413.66;6299783;28;20045;-76
2024/02/27 05:20:40;;;;;;;27.48;8.55;;;;;;;4.33;100.00;101417.13;6298903;28;20353;-77
2024/02/27 05:23:42;;;;;;;21.15;7.93;;;;;;;4.33;100.00;101417.97;6299638;28;20166;-77
2024/02/27 05:26:44;;;;;;;21.67;7.93;;;;;;;4.30;100.00;101422.34;6292985;28;20048;-76
2024/02/27 05:29:45;;;;;;;20.35;8.40;;;;;;;4.23;100.00;101416.41;6295385;28;20055;-76
2024/02/27 05:32:46;;;;;;;20.45;8.02;;;;;;;4.30;100.00;101417.16;6304281;28;20491;-76
2024/02/27 05:35:48;;;;;;;23.08;8.73;;;;;;;4.24;100.00;101418.13;6303790;28;20405;-76
2024/02/27 05:38:51;;;;;;;22.38;8.23;;;;;;;4.29;100.00;101420.66;6303631;28;20429;-76
2024/02/27 05:41:54;;;;;;;20.30;7.72;;;;;;;4.39;100.00;101427.41;6295330;28;20080;-76
2024/02/27 05:44:55;;;;;;;31.13;9.00;;;;;;;4.44;100.00;101429.94;6296766;28;20388;-76
2024/02/27 05:47:57;;;;;;;25.23;9.73;;;;;;;4.45;100.00;101431.63;6303429;28;20094;-76
2024/02/27 05:50:58;;;;;;;20.38;8.18;;;;;;;4.41;100.00;101428.25;6303603;28;20437;-76
2024/02/27 05:54:01;;;;;;;25.83;9.95;;;;;;;4.49;100.00;101446.31;6299804;28;20283;-76
2024/02/27 05:57:04;;;;;;;21.63;7.78;;;;;;;4.51;100.00;101449.78;6271753;28;20061;-76
2024/02/27 06:00:09;;;;;;;19.88;7.95;;;;;;;4.56;100.00;101454.00;6275253;28;20187;-76
2024/02/27 06:03:10;;;;;;;19.88;7.60;;;;;;;4.52;100.00;101452.34;6274956;28;20049;-76
2024/02/27 06:06:13;;;;;;;22.77;8.57;;;;;;;4.54;100.00;101457.50;6289974;28;20048;-76
2024/02/27 06:09:15;;;;;;;19.17;7.53;;;;;;;4.57;100.00;101454.88;6301714;28;20048;-76
2024/02/27 06:12:17;;;;;;;27.40;8.73;;;;;;;4.55;100.00;101461.84;6278577;28;20429;-76
2024/02/27 06:15:19;;;;;;;24.92;8.65;;;;;;;4.43;100.00;101464.66;6298942;28;20364;-77
2024/02/27 06:18:20;;;;;;;23.15;8.75;;;;;;;4.49;100.00;101477.56;6300553;28;20432;-76
2024/02/27 06:24:42;;;;;;;19.52;7.68;;;;;;;4.53;100.00;101487.88;6284870;28;20529;-76
2024/02/27 06:27:43;;;;;;;19.08;7.40;;;;;;;4.59;100.00;101492.16;6285527;28;20338;-76
2024/02/27 06:30:45;;;;;;;21.48;8.80;;;;;;;4.60;100.00;101506.88;6282552;28;20048;-77
2024/02/27 06:33:46;;;;;;;19.88;8.10;;;;;;;4.66;100.00;101517.19;6285857;28;20045;-76
2024/02/27 06:36:48;;;;;;;18.83;8.23;;;;;;;4.65;100.00;101528.50;6280476;28;20056;-76
2024/02/27 06:39:54;;;;;;;20.58;9.15;;;;;;;4.66;100.00;101526.75;6268398;28;20441;-77
2024/02/27 06:42:55;;;;;;;19.33;7.75;;;;;;;4.61;100.00;101538.97;6279538;28;20115;-76
2024/02/27 06:45:57;;;;;;;23.10;8.98;;;;;;;4.61;100.00;101537.22;6277304;28;20048;-76
2024/02/27 06:48:58;;;;;;;19.10;7.32;;;;;;;4.63;100.00;101537.19;6262841;28;20052;-76
2024/02/27 06:51:59;;;;;;;22.15;8.93;;;;;;;4.68;100.00;101535.38;6278785;28;20361;-76
2024/02/27 06:55:03;;;;;;;18.73;7.25;;;;;;;4.68;100.00;101538.88;6294945;28;20053;-76
2024/02/27 06:58:05;;;;;;;19.33;7.53;;;;;;;4.69;100.00;101543.19;6270516;28;20049;-77
2024/02/27 07:01:07;;;;;;;19.67;7.80;;;;;;;4.71;100.00;101545.75;6274698;28;20049;-76
2024/02/27 07:04:08;;;;;;;21.27;8.32;;;;;;;4.62;100.00;101548.50;6280024;28;20041;-76
2024/02/27 07:07:09;;;;;;;22.33;8.75;;;;;;;4.74;100.00;101541.34;6272802;28;20048;-77
2024/02/27 07:10:13;;;;;;;21.90;8.02;;;;;;;4.76;100.00;101550.00;6276196;28;20037;-76
2024/02/27 07:13:15;;;;;;;18.58;7.78;;;;;;;4.71;100.00;101546.59;6274440;28;20037;-76
2024/02/27 07:16:17;;;;;;;16.67;7.95;;;;;;;4.80;100.00;101548.19;6276781;28;20386;-76
2024/02/27 07:19:19;;;;;;;23.05;8.30;;;;;;;4.80;100.00;101537.78;6261064;28;20120;-76
2024/02/27 07:22:21;;;;;;;16.40;7.80;;;;;;;4.84;100.00;101535.09;6268074;28;20056;-76
2024/02/27 07:25:24;;;;;;;20.23;8.23;;;;;;;4.86;100.00;101534.22;6271056;28;20041;-77
2024/02/27 07:28:25;;;;;;;22.27;8.52;;;;;;;4.86;100.00;101534.22;6253334;28;20045;-77
2024/02/27 07:31:26;;;;;;;21.48;8.50;;;;;;;4.90;100.00;101546.28;6255414;28;20044;-77
2024/02/27 07:34:28;;;;;;;16.83;7.63;;;;;;;4.88;100.00;101541.13;6258825;28;20045;-78
2024/02/27 07:37:29;;;;;;;19.00;7.80;;;;;;;4.89;100.00;101542.84;6273915;28;20049;-78
2024/02/27 07:40:32;;;;;;;19.02;8.10;;;;;;;4.87;100.00;101547.22;6270153;28;20049;-78
2024/02/27 07:43:33;;;;;;;19.85;8.18;;;;;;;4.98;100.00;101549.63;6257369;28;20064;-77
2024/02/27 07:46:34;;;;;;;18.33;8.18;;;;;;;5.01;100.00;101549.59;6253983;28;20437;-78
2024/02/27 07:49:36;;;;;;;22.27;8.95;;;;;;;5.03;100.00;101545.19;6236042;22;20049;-69
2024/02/27 07:52:37;;;;;;;19.42;8.07;;;;;;;5.12;100.00;101552.84;6241220;28;20441;-78
2024/02/27 07:55:41;;;;;;;24.48;9.23;;;;;;;5.00;100.00;101558.31;6240884;28;20041;-80
2024/02/27 07:58:42;;;;;;;21.02;9.32;;;;;;;5.01;100.00;101560.88;6249527;28;20485;-80
2024/02/27 08:01:43;;;;;;;20.08;8.50;;;;;;;5.11;100.00;101555.50;6233476;28;20042;-78
2024/02/27 08:04:45;;;;;;;24.25;9.57;;;;;;;5.09;100.00;101564.22;6226261;28;20042;-78
2024/02/27 08:07:46;;;;;;;23.15;9.05;;;;;;;5.08;100.00;101562.47;6226632;28;20362;-78
2024/02/27 08:10:49;;;;;;;19.25;7.35;;;;;;;5.15;100.00;101562.38;6225863;28;20052;-78
2024/02/27 08:13:50;;;;;;;17.95;7.75;;;;;;;5.21;100.00;101562.25;6226602;28;20050;-78
2024/02/27 08:16:52;;;;;;;25.42;9.23;;;;;;;5.24;100.00;101565.66;6226478;28;20056;-79
2024/02/27 08:19:53;;;;;;;22.13;9.18;;;;;;;5.26;100.00;101576.91;6225520;28;20073;-77
2024/02/27 08:22:54;;;;;;;17.88;7.93;;;;;;;5.25;100.00;101574.34;6212423;28;20046;-78
2024/02/27 08:25:58;;;;;;;18.55;8.43;;;;;;;5.14;100.00;101581.50;6225880;28;20358;-78
2024/02/27 08:28:59;;;;;;;21.00;8.57;;;;;;;5.18;100.00;101572.72;6225898;28;20077;-77
2024/02/27 08:32:00;;;;;;;20.83;8.15;;;;;;;5.27;100.00;101583.00;6225856;28;20177;-78
2024/02/27 08:35:02;;;;;;;19.67;8.00;;;;;;;5.25;100.00;101585.63;6225951;28;20053;-77
2024/02/27 08:38:03;;;;;;;20.95;8.10;;;;;;;5.38;100.00;101586.28;6219718;28;20320;-78
2024/02/27 08:41:06;;;;;;;23.95;7.55;;;;;;;5.40;100.00;101594.03;6215425;28;20133;-78
2024/02/27 08:44:07;;;;;;;18.52;8.23;;;;;;;5.51;100.00;101586.91;6211166;28;20062;-80
2024/02/27 08:47:08;;;;;;;17.23;7.45;;;;;;;5.54;100.00;101594.66;6213709;28;20439;-78
2024/02/27 08:50:11;;;;;;;19.88;8.10;;;;;;;5.48;100.00;101592.16;6212108;28;20050;-78
2024/02/27 08:53:13;;;;;;;21.30;7.30;;;;;;;5.51;100.00;101592.97;6213662;28;20133;-78
2024/02/27 08:56:16;;;;;;;19.90;8.55;;;;;;;5.40;100.00;101597.50;6213409;28;20042;-78
2024/02/27 08:59:18;;;;;;;17.08;7.55;;;;;;;5.31;100.00;101595.06;6212015;28;20125;-78
2024/02/27 09:02:19;;;;;;;19.17;8.65;;;;;;;5.38;100.00;101590.63;6213673;28;20042;-78
2024/02/27 09:05:20;;;;;;;20.90;9.23;;;;;;;5.58;100.00;101591.94;6211405;28;20042;-79
2024/02/27 09:08:22;;;;;;;21.75;9.45;;;;;;;5.74;100.00;101596.88;6212598;28;20049;-78
2024/02/27 09:11:25;;;;;;;22.00;8.90;;;;;;;5.86;100.00;101594.06;6215984;28;20129;-78
2024/02/27 09:14:26;;;;;;;22.10;8.13;;;;;;;5.73;100.00;101589.97;6225428;28;20049;-78
2024/02/27 09:17:31;;;;;;;16.88;8.18;;;;;;;5.67;100.00;101588.31;6225488;28;20354;-78
2024/02/27 09:20:32;;;;;;;17.52;7.57;;;;;;;5.76;100.00;101597.72;6225131;28;20128;-78
2024/02/27 09:23:33;;;;;;;17.50;6.90;;;;;;;5.84;100.00;101593.19;6225465;28;20046;-78
2024/02/27 09:26:36;;;;;;;19.83;8.38;;;;;;;5.84;100.00;101588.84;6225151;28;20050;-78
2024/02/27 09:29:37;;;;;;;16.17;8.10;;;;;;;5.99;100.00;101594.66;6224889;28;20054;-78
2024/02/27 09:32:39;;;;;;;19.27;8.38;;;;;;;5.97;100.00;101586.88;6225581;28;20053;-78
2024/02/27 09:35:41;;;;;;;22.10;7.85;;;;;;;6.07;100.00;101593.63;6225383;28;20054;-78
2024/02/27 09:38:43;;;;;;;18.75;7.90;;;;;;;6.04;100.00;101583.25;6225451;28;20057;-80
2024/02/27 09:41:55;;;;;;;19.13;8.45;;;;;;;5.96;100.00;101589.53;6225513;28;20053;-77
2024/02/27 09:44:59;;;;;;;19.55;6.90;;;;;;;6.12;100.00;101577.84;6224982;28;20049;-79
2024/02/27 09:48:03;;;;;;;25.17;8.32;;;;;;;6.23;100.00;101570.69;6225161;28;20049;-79
2024/02/27 09:51:06;;;;;;;18.08;7.93;;;;;;;6.25;100.00;101574.09;6225001;28;20054;-78
2024/02/27 09:54:08;;;;;;;15.18;7.00;;;;;;;6.19;100.00;101571.63;6225135;28;20053;-78
2024/02/27 09:57:11;;;;;;;31.55;9.05;;;;;;;6.35;100.00;101574.75;6225182;28;20056;-80
2024/02/27 10:00:13;;;;;;;23.88;8.93;;;;;;;6.53;100.00;101576.94;6224842;28;20065;-79
2024/02/27 10:03:15;;;;;;;18.52;7.90;;;;;;;6.44;100.00;101577.16;6223896;28;20046;-79
2024/02/27 10:06:18;;;;;;;27.95;11.00;;;;;;;6.43;100.00;101574.59;6224859;28;20375;-79
2024/02/27 10:09:22;;;;;;;20.58;9.00;;;;;;;6.63;100.00;101574.97;6224435;28;20052;-78
2024/02/27 10:12:25;;;;;;;19.00;8.63;;;;;;;6.66;100.00;101581.88;6225679;28;20053;-78
2024/02/27 10:15:26;;;;;;;20.42;8.60;;;;;;;6.56;100.00;101582.09;6224646;28;20054;-78
2024/02/27 10:18:27;;;;;;;21.45;8.35;;;;;;;6.62;100.00;101588.91;6226035;28;20049;-78
2024/02/27 10:21:29;;;;;;;20.65;8.50;;;;;;;6.52;100.00;101592.66;6216517;28;20053;-79
2024/02/27 10:24:30;;;;;;;16.65;6.93;;;;;;;6.61;100.00;101595.03;6205126;28;20046;-79
2024/02/27 10:27:34;;;;;;;32.08;10.30;;;;;;;6.64;100.00;101594.97;6205335;28;20042;-79
2024/02/27 10:30:36;;;;;;;18.48;7.47;;;;;;;6.75;100.00;101592.09;6230893;28;20125;-79
2024/02/27 10:33:38;;;;;;;19.08;8.13;;;;;;;6.94;100.00;101593.38;6234296;28;20038;-79
2024/02/27 10:36:40;;;;;;;18.52;7.32;;;;;;;7.04;100.00;101594.00;6234386;28;20049;-79
2024/02/27 10:39:41;;;;;;;15.60;6.88;;;;;;;6.79;100.00;101589.38;6230949;28;20085;-78
2024/02/27 10:42:44;;;;;;;17.48;7.22;;;;;;;6.80;100.00;101583.25;6221724;28;20046;-79
2024/02/27 10:45:48;;;;;;;16.38;7.40;;;;;;;6.81;100.00;101586.72;6227259;28;20049;-80
2024/02/27 10:48:50;;;;;;;18.15;7.82;;;;;;;6.83;100.00;101582.34;6227808;28;20346;-79
2024/02/27 10:51:52;;;;;;;20.83;8.63;;;;;;;6.97;100.00;101588.06;6228311;28;20046;-83
2024/02/27 10:54:54;;;;;;;19.98;8.20;;;;;;;6.92;100.00;101583.88;6228174;28;20069;-79
2024/02/27 10:58:00;;;;;;;16.83;7.35;;;;;;;7.07;100.00;101596.53;6228350;28;20053;-79
2024/02/27 11:01:03;;;;;;;19.13;8.10;;;;;;;7.00;100.00;101584.53;6228053;28;20049;-79
2024/02/27 11:04:06;;;;;;;16.10;7.78;;;;;;;6.91;100.00;101585.63;6228010;28;20128;-79
2024/02/27 11:07:10;;;;;;;20.73;7.18;;;;;;;7.02;100.00;101583.59;6228114;28;20053;-79
2024/02/27 11:10:12;;;;;;;19.85;8.75;;;;;;;7.26;100.00;101582.09;6229370;28;20083;-79
2024/02/27 11:13:19;;;;;;;19.98;8.65;;;;;;;7.61;100.00;101586.38;6227837;28;20054;-79
2024/02/27 11:16:22;;;;;;;19.10;8.63;;;;;;;7.95;100.00;101590.69;6227728;28;20053;-78
2024/02/27 11:19:24;;;;;;;19.58;8.40;;;;;;;8.12;100.00;101587.56;6211349;28;20056;-78
2024/02/27 11:22:27;;;;;;;23.20;9.82;;;;;;;8.09;100.00;101588.53;6227937;28;20077;-78
2024/02/27 11:25:29;;;;;;;21.65;9.82;;;;;;;7.45;100.00;101592.94;6227889;28;20430;-79
2024/02/27 11:28:33;;;;;;;22.15;10.30;;;;;;;7.46;100.00;101593.81;6229896;28;20050;-78
2024/02/27 11:31:36;;;;;;;18.67;9.05;;;;;;;7.34;100.00;101594.97;6230285;28;20042;-80
2024/02/27 11:34:37;;;;;;;25.05;9.48;;;;;;;7.38;100.00;101594.84;6224144;28;20046;-78
2024/02/27 11:37:38;;;;;;;21.25;9.43;;;;;;;7.15;100.00;101588.53;6204833;28;20053;-78
2024/02/27 11:40:47;;;;;;;20.85;9.82;;;;;;;7.33;100.00;101590.66;6202689;28;20046;-78
2024/02/27 11:43:51;;;;;;;20.17;9.20;;;;;;;7.37;100.00;101587.06;6218289;28;20046;-77
2024/02/27 11:46:55;;;;;;;19.27;8.70;;;;;;;7.41;100.00;101591.31;6211113;28;20370;-79
2024/02/27 11:49:56;;;;;;;18.92;9.07;;;;;;;7.47;100.00;101585.91;6202104;28;20578;-78
2024/02/27 11:52:57;;;;;;;17.95;8.00;;;;;;;7.61;100.00;101588.16;6202573;28;20054;-78
2024/02/27 11:55:59;;;;;;;19.25;8.68;;;;;;;7.72;100.00;101582.59;6201406;28;20454;-78
2024/02/27 11:59:01;;;;;;;17.33;7.63;;;;;;;7.84;100.00;101580.50;6202254;28;20595;-80
2024/02/27 12:02:04;;;;;;;14.77;7.13;;;;;;;7.94;100.00;101578.47;6202193;28;20458;-77
2024/02/27 12:05:06;;;;;;;18.50;7.72;;;;;;;7.78;100.00;101572.00;6202310;28;20057;-78
2024/02/27 12:08:07;;;;;;;16.50;7.63;;;;;;;7.69;100.00;101577.47;6201906;28;20058;-78
2024/02/27 12:11:09;;;;;;;18.90;8.38;;;;;;;7.73;100.00;101577.34;6202175;28;20350;-80
2024/02/27 12:14:12;;;;;;;17.60;8.15;;;;;;;7.89;100.00;101568.16;6202076;28;20046;-80
2024/02/27 12:17:13;;;;;;;17.45;8.15;;;;;;;8.10;100.00;101557.97;6202214;28;20435;-79
2024/02/27 12:20:15;;;;;;;21.45;9.55;;;;;;;8.16;100.00;101557.75;6201709;28;20065;-78
2024/02/27 12:23:16;;;;;;;16.58;9.25;;;;;;;8.32;100.00;101547.69;6202165;28;20046;-78
2024/02/27 12:26:18;;;;;;;18.67;8.40;;;;;;;8.04;100.00;101550.28;6202011;28;20438;-77
2024/02/27 12:29:25;;;;;;;17.70;8.85;;;;;;;8.14;100.00;101544.72;6201340;28;20042;-78
2024/02/27 12:32:26;;;;;;;16.15;8.13;;;;;;;8.07;100.00;101535.34;6202015;28;20435;-78
2024/02/27 12:35:28;;;;;;;23.52;8.63;;;;;;;8.03;100.00;101545.94;6201007;28;20042;-80
2024/02/27 12:38:30;;;;;;;17.60;8.07;;;;;;;8.09;100.00;101545.78;6201363;28;20053;-79
2024/02/27 12:41:31;;;;;;;49.33;11.63;;;;;;;8.21;100.00;101541.91;6201902;28;20054;-78
2024/02/27 12:44:37;;;;;;;15.25;7.60;;;;;;;8.61;100.00;101528.44;6201485;28;20351;-78
2024/02/27 12:47:38;;;;;;;18.55;7.82;;;;;;;8.77;100.00;101526.19;6201963;28;20046;-78
2024/02/27 12:50:42;;;;;;;14.27;6.38;;;;;;;8.68;100.00;101526.50;6200982;28;20442;-78
2024/02/27 12:53:43;;;;;;;13.85;6.43;;;;;;;8.45;100.00;101514.13;6201526;28;20053;-78
2024/02/27 12:56:45;;;;;;;15.80;7.47;;;;;;;8.65;100.00;101524.81;6201111;28;20050;-78
2024/02/27 12:59:48;;;;;;;33.42;12.77;;;;;;;8.76;100.00;101517.44;6200962;28;20050;-77
2024/02/27 13:02:55;;;;;;;17.27;8.40;;;;;;;8.91;100.00;101512.63;6201488;28;20427;-77
2024/02/27 13:06:00;;;;;;;14.93;7.50;;;;;;;8.89;100.00;101510.88;6217505;28;20124;-78
2024/02/27 13:09:02;;;;;;;18.25;8.48;;;;;;;8.73;100.00;101508.88;6225124;28;20057;-78
2024/02/27 13:12:07;;;;;;;17.63;7.82;;;;;;;8.55;100.00;101499.84;6225473;28;20058;-78
2024/02/27 13:15:10;;;;;;;17.98;7.80;;;;;;;8.46;100.00;101495.75;6225458;28;20350;-78
2024/02/27 13:18:13;;;;;;;15.38;7.57;;;;;;;8.52;100.00;101485.06;6225171;28;20045;-78
2024/02/27 13:21:18;;;;;;;12.70;6.60;;;;;;;8.40;100.00;101482.84;6225607;28;20466;-78
2024/02/27 13:24:19;;;;;;;13.73;5.63;;;;;;;8.37;100.00;101488.19;6225533;28;20126;-78
2024/02/27 13:27:20;;;;;;;13.85;7.15;;;;;;;8.35;100.00;101485.56;6225564;28;20050;-79
2024/02/27 13:30:24;;;;;;;14.77;6.30;;;;;;;8.21;100.00;101487.78;6224837;28;20460;-77
2024/02/27 13:33:25;;;;;;;13.63;6.30;;;;;;;8.21;100.00;101485.16;6225447;28;20129;-79
2024/02/27 13:36:27;;;;;;;14.52;5.95;;;;;;;8.46;100.00;101490.53;6225224;28;20456;-77
2024/02/27 13:39:28;;;;;;;15.45;7.47;;;;;;;9.21;100.00;101498.44;6224919;28;20605;-77
2024/02/27 13:42:29;;;;;;;11.93;6.03;;;;;;;9.79;100.00;101493.66;6225138;28;20038;-77
2024/02/27 13:45:32;;;;;;;14.73;6.88;;;;;;;10.43;98.39;101492.94;6225198;28;20050;-79
2024/02/27 13:48:33;;;;;;;10.50;5.53;;;;;;;10.74;94.27;101495.16;6227875;28;20053;-78
2024/02/27 13:51:35;;;;;;;13.02;5.60;;;;;;;10.68;93.21;101490.16;6229667;28;20438;-77
2024/02/27 13:54:37;;;;;;;13.57;5.78;;;;;;;10.41;98.43;101494.78;6229341;28;20046;-74
2024/02/27 13:57:39;;;;;;;15.27;7.82;;;;;;;10.06;98.01;101491.75;6229700;28;20049;-75
2024/02/27 14:00:42;;;;;;;15.48;8.73;;;;;;;9.52;98.77;101492.09;6228907;28;20374;-74